createdAt,value
2019-03-26T00:00:33.887Z,20.10
2019-03-26T00:03:07.787Z,20.10
2019-03-26T00:05:41.409Z,20.10
2019-03-26T00:08:24.410Z,20.10
2019-03-26T00:10:59.335Z,20.10
2019-03-26T00:13:32.567Z,20.10
2019-03-26T00:16:06.477Z,20.10
2019-03-26T00:21:34.097Z,20.20
2019-03-26T00:24:08.052Z,20.10
2019-03-26T00:27:17.849Z,20.20
2019-03-26T00:29:51.915Z,20.20
2019-03-26T00:32:25.496Z,20.20
2019-03-26T00:35:09.632Z,20.20
2019-03-26T00:37:54.312Z,20.20
2019-03-26T00:40:28.519Z,20.20
2019-03-26T00:43:02.348Z,20.20
2019-03-26T00:45:37.363Z,20.30
2019-03-26T00:48:11.436Z,20.30
2019-03-26T00:50:45.983Z,20.30
2019-03-26T00:53:20.374Z,20.30
2019-03-26T00:55:53.860Z,20.30
2019-03-26T00:58:27.625Z,20.30
2019-03-26T01:01:01.152Z,20.40
2019-03-26T01:03:35.490Z,20.30
2019-03-26T01:06:09.063Z,20.40
2019-03-26T01:08:42.926Z,20.40
2019-03-26T01:11:16.533Z,20.40
2019-03-26T01:13:49.886Z,20.40
2019-03-26T01:16:23.101Z,20.30
2019-03-26T01:18:56.710Z,20.30
2019-03-26T01:21:30.319Z,20.40
2019-03-26T01:24:04.063Z,20.40
2019-03-26T01:26:37.453Z,20.40
2019-03-26T01:29:11.475Z,20.40
2019-03-26T01:31:44.747Z,20.50
2019-03-26T01:34:18.357Z,20.50
2019-03-26T01:36:51.767Z,20.60
2019-03-26T01:39:25.610Z,20.50
2019-03-26T01:41:58.943Z,20.50
2019-03-26T01:44:32.492Z,20.50
2019-03-26T01:47:06.052Z,20.60
2019-03-26T01:49:39.850Z,20.60
2019-03-26T01:52:13.362Z,20.60
2019-03-26T01:54:46.815Z,20.60
2019-03-26T01:57:22.606Z,20.70
2019-03-26T01:59:55.849Z,20.70
2019-03-26T02:02:32.296Z,20.80
2019-03-26T02:05:06.551Z,20.80
2019-03-26T02:07:39.997Z,20.90
2019-03-26T02:10:34.109Z,21.00
2019-03-26T02:16:10.671Z,21.10
2019-03-26T02:18:45.416Z,21.20
2019-03-26T02:21:20.425Z,21.20
2019-03-26T02:23:54.218Z,21.30
2019-03-26T02:26:32.436Z,21.30
2019-03-26T02:29:06.589Z,21.30
2019-03-26T02:31:43.356Z,21.40
2019-03-26T02:34:19.301Z,21.40
2019-03-26T02:36:52.758Z,21.50
2019-03-26T02:39:26.442Z,21.60
2019-03-26T02:42:12.231Z,21.70
2019-03-26T02:44:39.028Z,21.70
2019-03-26T02:47:12.851Z,21.80
2019-03-26T02:49:48.978Z,21.80
2019-03-26T02:52:22.938Z,21.80
2019-03-26T02:54:56.338Z,21.90
2019-03-26T02:57:30.093Z,21.90
2019-03-26T03:00:04.369Z,21.90
2019-03-26T03:02:38.102Z,22.00
2019-03-26T03:05:11.531Z,21.90
2019-03-26T03:07:44.865Z,22.00
2019-03-26T03:10:18.356Z,22.00
2019-03-26T03:12:53.425Z,22.00
2019-03-26T03:15:27.755Z,22.00
2019-03-26T03:18:01.384Z,22.00
2019-03-26T03:20:34.599Z,22.00
2019-03-26T03:23:08.329Z,22.10
2019-03-26T03:25:41.672Z,22.20
2019-03-26T03:28:19.182Z,22.30
2019-03-26T03:30:53.516Z,22.30
2019-03-26T03:33:30.472Z,22.40
2019-03-26T03:36:02.514Z,22.40
2019-03-26T03:38:35.815Z,22.40
2019-03-26T03:41:42.143Z,22.40
2019-03-26T03:47:31.416Z,22.20
2019-03-26T03:53:39.342Z,22.10
2019-03-26T03:57:00.967Z,22.20
2019-03-26T04:12:50.368Z,22.40
2019-03-26T04:16:14.517Z,22.50
2019-03-26T04:21:46.182Z,23.00
2019-03-26T04:25:10.860Z,23.20
2019-03-26T04:27:10.395Z,23.30
2019-03-26T04:29:45.549Z,23.30
2019-03-26T04:32:19.162Z,23.30
2019-03-26T04:35:19.539Z,23.20
2019-03-26T04:37:57.423Z,23.10
2019-03-26T04:40:32.136Z,23.20
2019-03-26T04:43:09.419Z,23.20
2019-03-26T04:45:43.694Z,23.10
2019-03-26T04:48:18.519Z,23.00
2019-03-26T04:51:02.281Z,23.00
2019-03-26T04:53:34.087Z,22.90
2019-03-26T04:56:07.756Z,22.80
2019-03-26T04:58:44.039Z,22.70
2019-03-26T05:01:17.560Z,22.70
2019-03-26T05:03:51.038Z,22.60
2019-03-26T05:06:37.220Z,22.60
2019-03-26T05:08:59.957Z,22.50
2019-03-26T05:12:25.546Z,22.50
2019-03-26T05:15:16.961Z,22.50
2019-03-26T05:17:51.963Z,22.40
2019-03-26T05:20:29.463Z,22.40
2019-03-26T05:23:03.303Z,22.40
2019-03-26T05:25:37.644Z,22.40
2019-03-26T05:28:11.289Z,22.50
2019-03-26T05:30:58.487Z,22.50
2019-03-26T05:33:37.229Z,22.50
2019-03-26T05:36:09.127Z,22.50
2019-03-26T05:38:42.452Z,22.50
2019-03-26T05:41:18.884Z,22.50
2019-03-26T05:43:53.416Z,22.60
2019-03-26T05:46:33.905Z,22.70
2019-03-26T05:49:07.209Z,22.80
2019-03-26T05:51:41.750Z,22.90
2019-03-26T05:54:16.380Z,23.00
2019-03-26T05:56:50.090Z,23.10
2019-03-26T05:59:23.289Z,23.30
2019-03-26T06:02:14.200Z,23.40
2019-03-26T06:04:40.920Z,23.60
2019-03-26T06:07:25.302Z,23.80
2019-03-26T06:09:59.473Z,24.00
2019-03-26T06:12:36.994Z,24.00
2019-03-26T06:15:22.341Z,24.10
2019-03-26T06:17:57.762Z,24.20
2019-03-26T06:20:35.563Z,24.20
2019-03-26T06:23:09.092Z,24.30
2019-03-26T06:25:43.790Z,24.20
2019-03-26T06:28:20.073Z,24.30
2019-03-26T06:30:54.718Z,24.50
2019-03-26T06:33:30.128Z,24.50
2019-03-26T06:36:04.251Z,24.50
2019-03-26T06:38:38.467Z,24.50
2019-03-26T06:41:12.068Z,24.60
2019-03-26T06:43:49.490Z,24.50
2019-03-26T06:46:23.809Z,24.50
2019-03-26T06:48:58.109Z,24.40
2019-03-26T06:51:35.378Z,24.40
2019-03-26T06:54:10.024Z,24.30
2019-03-26T06:56:43.898Z,24.20
2019-03-26T06:59:17.393Z,24.20
2019-03-26T07:01:51.635Z,24.10
2019-03-26T07:04:25.379Z,24.10
2019-03-26T07:06:59.153Z,24.20
2019-03-26T07:09:32.795Z,24.20
2019-03-26T07:12:07.792Z,24.20
2019-03-26T07:14:52.465Z,24.20
2019-03-26T07:17:27.567Z,24.20
2019-03-26T07:20:02.141Z,24.30
2019-03-26T07:22:36.984Z,24.30
2019-03-26T07:25:12.025Z,24.50
2019-03-26T07:27:46.612Z,24.40
2019-03-26T07:30:39.739Z,24.50
2019-03-26T07:33:13.449Z,24.40
2019-03-26T07:35:50.802Z,24.40
2019-03-26T07:38:27.536Z,24.40
2019-03-26T07:41:00.859Z,24.40
2019-03-26T07:43:34.587Z,24.50
2019-03-26T07:46:08.270Z,24.50
2019-03-26T07:48:43.379Z,24.50
2019-03-26T07:51:16.599Z,24.50
2019-03-26T07:53:50.374Z,24.70
2019-03-26T07:56:23.663Z,24.80
2019-03-26T07:58:57.108Z,25.10
2019-03-26T08:01:30.361Z,25.40
2019-03-26T08:04:04.293Z,25.40
2019-03-26T08:06:37.806Z,25.40
2019-03-26T08:09:11.575Z,25.40
2019-03-26T08:11:44.857Z,25.30
2019-03-26T08:14:18.260Z,25.20
2019-03-26T08:16:51.521Z,25.10
2019-03-26T08:19:25.384Z,25.00
2019-03-26T08:21:58.541Z,24.90
2019-03-26T08:24:32.175Z,24.80
2019-03-26T08:27:05.402Z,24.70
2019-03-26T08:29:40.885Z,24.60
2019-03-26T08:32:14.396Z,24.60
2019-03-26T08:34:48.062Z,24.50
2019-03-26T08:37:21.775Z,24.40
2019-03-26T08:39:56.149Z,24.30
2019-03-26T08:42:30.039Z,24.30
2019-03-26T08:45:03.596Z,24.30
2019-03-26T08:47:37.383Z,24.30
2019-03-26T08:50:11.225Z,24.30
2019-03-26T08:52:44.668Z,24.20
2019-03-26T08:55:19.789Z,24.20
2019-03-26T08:57:53.246Z,24.10
2019-03-26T09:00:32.068Z,24.10
2019-03-26T09:03:04.491Z,24.00
2019-03-26T09:05:38.297Z,24.00
2019-03-26T09:08:24.490Z,24.00
2019-03-26T09:10:51.705Z,23.90
2019-03-26T09:13:21.170Z,23.80
2019-03-26T09:15:54.656Z,23.70
2019-03-26T09:18:27.859Z,23.70
2019-03-26T09:21:01.833Z,23.60
2019-03-26T09:23:35.034Z,23.60
2019-03-26T09:26:08.524Z,23.60
2019-03-26T09:28:41.762Z,23.60
2019-03-26T09:31:18.990Z,23.60
2019-03-26T09:33:52.327Z,23.50
2019-03-26T09:36:26.055Z,23.60
2019-03-26T09:38:59.641Z,23.50
2019-03-26T09:41:33.505Z,23.50
2019-03-26T09:44:06.767Z,23.50
2019-03-26T09:46:40.490Z,23.50
2019-03-26T09:49:16.468Z,23.40
2019-03-26T09:51:48.732Z,23.30
2019-03-26T09:54:22.166Z,23.30
2019-03-26T09:56:55.785Z,23.20
2019-03-26T09:59:29.602Z,23.20
2019-03-26T10:02:03.450Z,23.20
2019-03-26T10:04:36.793Z,23.20
2019-03-26T10:07:20.733Z,23.20
2019-03-26T10:09:45.004Z,23.10
2019-03-26T10:12:18.864Z,23.10
2019-03-26T10:14:52.319Z,23.10
2019-03-26T10:17:25.885Z,23.00
2019-03-26T10:19:59.256Z,23.00
2019-03-26T10:22:32.960Z,23.00
2019-03-26T10:25:28.858Z,23.00
2019-03-26T10:27:53.058Z,22.90
2019-03-26T10:30:38.468Z,22.80
2019-03-26T10:33:12.103Z,22.80
2019-03-26T10:38:40.995Z,22.80
2019-03-26T10:41:14.744Z,22.80
2019-03-26T10:43:48.080Z,22.70
2019-03-26T10:46:22.717Z,22.70
2019-03-26T10:48:56.120Z,22.60
2019-03-26T10:51:30.319Z,22.60
2019-03-26T10:54:05.219Z,22.50
2019-03-26T10:56:38.392Z,22.60
2019-03-26T10:59:11.736Z,22.50
2019-03-26T11:01:45.888Z,22.50
2019-03-26T11:04:22.117Z,22.50
2019-03-26T11:06:56.033Z,22.50
2019-03-26T11:09:30.223Z,22.40
2019-03-26T11:12:06.662Z,22.40
2019-03-26T11:14:40.088Z,22.30
2019-03-26T11:17:16.659Z,22.30
2019-03-26T11:19:53.051Z,22.40
2019-03-26T11:22:27.289Z,22.40
2019-03-26T11:25:03.470Z,22.30
2019-03-26T11:27:37.609Z,22.30
2019-03-26T11:30:11.489Z,22.30
2019-03-26T11:32:45.503Z,22.20
2019-03-26T11:35:19.102Z,22.20
2019-03-26T11:37:59.854Z,22.20
2019-03-26T11:40:33.955Z,22.20
2019-03-26T11:43:07.725Z,22.20
2019-03-26T11:45:42.119Z,22.20
2019-03-26T11:48:21.547Z,22.20
2019-03-26T11:50:55.868Z,22.20
2019-03-26T11:53:29.593Z,22.20
2019-03-26T11:56:05.482Z,22.20
2019-03-26T11:58:39.845Z,22.10
2019-03-26T12:01:13.392Z,22.10
2019-03-26T12:03:47.053Z,22.10
2019-03-26T12:06:21.071Z,22.10
2019-03-26T12:08:54.492Z,22.10
2019-03-26T12:11:27.909Z,22.10
2019-03-26T12:14:01.381Z,22.10
2019-03-26T12:16:35.081Z,22.10
2019-03-26T12:19:08.410Z,22.10
2019-03-26T12:21:55.810Z,22.10
2019-03-26T12:24:32.585Z,22.10
2019-03-26T12:27:11.101Z,22.10
2019-03-26T12:29:47.019Z,22.10
2019-03-26T12:32:23.941Z,22.10
2019-03-26T12:34:57.878Z,22.10
2019-03-26T12:37:35.788Z,22.10
2019-03-26T12:40:18.307Z,22.00
2019-03-26T12:42:56.853Z,22.00
2019-03-26T12:45:30.145Z,22.00
2019-03-26T12:48:10.598Z,22.00
2019-03-26T12:50:46.419Z,22.00
2019-03-26T12:53:21.382Z,22.00
2019-03-26T12:55:55.562Z,22.00
2019-03-26T12:58:36.073Z,22.00
2019-03-26T13:01:06.563Z,22.00
2019-03-26T13:03:40.354Z,22.00
2019-03-26T13:06:17.616Z,22.00
2019-03-26T13:08:51.335Z,22.00
2019-03-26T13:11:28.848Z,22.00
2019-03-26T13:13:59.969Z,22.00
2019-03-26T13:16:33.382Z,22.00
2019-03-26T13:19:06.969Z,22.00
2019-03-26T13:21:41.756Z,22.00
2019-03-26T13:24:15.344Z,22.10
2019-03-26T13:26:49.268Z,22.10
2019-03-26T13:29:27.021Z,22.00
2019-03-26T13:32:01.013Z,22.00
2019-03-26T13:34:34.755Z,22.10
2019-03-26T13:37:10.079Z,22.10
2019-03-26T13:39:44.040Z,22.10
2019-03-26T13:42:17.943Z,22.10
2019-03-26T13:44:53.104Z,22.00
2019-03-26T13:47:27.688Z,22.00
2019-03-26T13:50:02.016Z,22.00
2019-03-26T13:52:35.448Z,22.00
2019-03-26T13:55:12.657Z,22.00
2019-03-26T13:57:46.454Z,22.00
2019-03-26T14:00:22.223Z,22.00
2019-03-26T14:02:56.016Z,22.00
2019-03-26T14:05:30.057Z,22.00
2019-03-26T14:08:03.290Z,22.00
2019-03-26T14:10:41.048Z,22.00
2019-03-26T14:13:11.627Z,22.00
2019-03-26T14:15:55.266Z,22.00
2019-03-26T14:18:28.865Z,22.00
2019-03-26T14:21:02.539Z,22.00
2019-03-26T14:23:36.324Z,22.00
2019-03-26T14:26:10.115Z,22.10
2019-03-26T14:28:43.500Z,22.00
2019-03-26T14:31:17.059Z,22.10
2019-03-26T14:33:50.307Z,22.10
2019-03-26T14:36:24.586Z,22.10
2019-03-26T14:38:58.081Z,22.00
2019-03-26T14:41:31.722Z,22.00
2019-03-26T14:44:05.537Z,22.00
2019-03-26T14:46:39.505Z,22.00
2019-03-26T14:49:13.573Z,22.00
2019-03-26T14:51:47.495Z,22.00
2019-03-26T14:54:24.702Z,22.00
2019-03-26T14:56:59.033Z,22.00
2019-03-26T14:59:34.122Z,22.00
2019-03-26T15:02:07.750Z,22.00
2019-03-26T15:04:41.349Z,22.00
2019-03-26T15:07:16.980Z,22.00
2019-03-26T15:09:51.165Z,22.10
2019-03-26T15:12:24.694Z,22.10
2019-03-26T15:14:58.345Z,22.10
2019-03-26T15:17:33.150Z,22.00
2019-03-26T15:20:08.866Z,22.10
2019-03-26T15:22:42.177Z,22.00
2019-03-26T15:25:17.433Z,22.00
2019-03-26T15:27:50.805Z,22.00
2019-03-26T15:30:24.395Z,22.00
2019-03-26T15:32:57.955Z,22.00
2019-03-26T15:35:31.638Z,22.00
2019-03-26T15:38:10.056Z,22.00
2019-03-26T15:40:47.099Z,22.00
2019-03-26T15:43:20.678Z,22.00
2019-03-26T15:45:57.300Z,22.00
2019-03-26T15:48:40.833Z,22.00
2019-03-26T15:51:15.346Z,22.00
2019-03-26T15:53:54.398Z,22.00
2019-03-26T15:56:28.247Z,22.00
2019-03-26T15:59:13.576Z,22.00
2019-03-26T16:01:54.263Z,22.00
2019-03-26T16:04:32.820Z,22.00
2019-03-26T16:07:04.755Z,22.00
2019-03-26T16:09:39.489Z,22.00
2019-03-26T16:12:13.678Z,22.00
2019-03-26T16:14:47.355Z,21.90
2019-03-26T16:17:23.880Z,22.00
2019-03-26T16:20:05.625Z,22.00
2019-03-26T16:22:40.821Z,22.00
2019-03-26T16:28:56.080Z,22.00
2019-03-26T16:31:36.474Z,22.00
2019-03-26T16:34:10.509Z,22.00
2019-03-26T16:36:44.023Z,22.00
2019-03-26T16:39:17.707Z,22.00
2019-03-26T16:41:51.987Z,21.90
2019-03-26T16:44:25.747Z,22.00
2019-03-26T16:46:59.429Z,21.90
2019-03-26T16:49:33.472Z,22.00
2019-03-26T16:52:09.670Z,22.00
2019-03-26T16:54:43.542Z,21.90
2019-03-26T16:57:16.914Z,21.90
2019-03-26T16:59:53.836Z,21.90
2019-03-26T17:02:27.117Z,21.90
2019-03-26T17:05:00.804Z,21.90
2019-03-26T17:07:34.117Z,21.90
2019-03-26T17:10:09.454Z,21.90
2019-03-26T17:12:42.928Z,21.90
2019-03-26T17:15:16.950Z,21.90
2019-03-26T17:17:50.353Z,21.90
2019-03-26T17:20:31.942Z,21.90
2019-03-26T17:23:06.610Z,21.90
2019-03-26T17:25:40.250Z,21.90
2019-03-26T17:28:13.945Z,21.90
2019-03-26T17:30:47.736Z,21.90
2019-03-26T17:33:22.214Z,21.90
2019-03-26T17:35:55.568Z,21.90
2019-03-26T17:38:28.774Z,21.90
2019-03-26T17:41:02.222Z,22.00
2019-03-26T17:43:36.463Z,21.90
2019-03-26T17:46:09.757Z,21.90
2019-03-26T17:48:43.401Z,21.90
2019-03-26T17:51:17.096Z,21.90
2019-03-26T17:53:51.409Z,21.80
2019-03-26T17:56:25.960Z,21.90
2019-03-26T17:58:59.777Z,21.90
2019-03-26T18:01:33.500Z,21.80
2019-03-26T18:04:07.250Z,21.80
2019-03-26T18:06:40.864Z,21.80
2019-03-26T18:09:14.675Z,21.90
2019-03-26T18:11:48.887Z,21.90
2019-03-26T18:14:22.533Z,21.90
2019-03-26T18:16:56.380Z,21.80
2019-03-26T18:19:38.218Z,21.90
2019-03-26T18:22:15.349Z,21.80
2019-03-26T18:24:48.780Z,21.90
2019-03-26T18:27:25.873Z,21.80
2019-03-26T18:30:00.950Z,21.80
2019-03-26T18:32:36.451Z,21.90
2019-03-26T18:35:10.268Z,21.90
2019-03-26T18:37:43.556Z,21.80
2019-03-26T18:40:17.417Z,21.80
2019-03-26T18:42:51.749Z,21.80
2019-03-26T18:45:25.629Z,21.80
2019-03-26T18:47:59.646Z,21.80
2019-03-26T18:50:32.993Z,21.80
2019-03-26T18:53:06.571Z,21.80
2019-03-26T18:55:43.334Z,21.80
2019-03-26T18:58:16.706Z,21.80
2019-03-26T19:00:50.413Z,21.80
2019-03-26T19:03:23.705Z,21.80
2019-03-26T19:05:57.409Z,21.80
2019-03-26T19:08:31.703Z,21.80
2019-03-26T19:11:05.564Z,21.80
2019-03-26T19:13:38.808Z,21.80
2019-03-26T19:16:12.172Z,21.80
2019-03-26T19:18:45.399Z,21.80
2019-03-26T19:21:19.427Z,21.80
2019-03-26T19:24:03.385Z,21.80
2019-03-26T19:26:28.313Z,21.80
2019-03-26T19:29:02.114Z,21.80
2019-03-26T19:31:36.422Z,21.80
2019-03-26T19:34:09.729Z,21.80
2019-03-26T19:36:43.062Z,21.80
2019-03-26T19:39:17.279Z,21.80
2019-03-26T19:41:50.672Z,21.80
2019-03-26T19:44:23.972Z,21.70
2019-03-26T19:46:58.060Z,21.80
2019-03-26T19:49:31.384Z,21.80
2019-03-26T19:52:05.202Z,21.80
2019-03-26T19:54:38.584Z,21.80
2019-03-26T19:57:12.519Z,21.70
2019-03-26T19:59:45.689Z,21.70
2019-03-26T20:02:19.511Z,21.70
2019-03-26T20:04:52.683Z,21.70
2019-03-26T20:07:26.638Z,21.70
2019-03-26T20:10:00.564Z,21.70
2019-03-26T20:12:35.370Z,21.60
2019-03-26T20:15:10.771Z,21.70
2019-03-26T20:17:44.186Z,21.70
2019-03-26T20:20:18.298Z,21.70
2019-03-26T20:22:54.501Z,21.70
2019-03-26T20:25:28.376Z,21.70
2019-03-26T20:28:02.070Z,21.70
2019-03-26T20:30:35.380Z,21.70
2019-03-26T20:33:09.113Z,21.60
2019-03-26T20:35:42.393Z,21.70
2019-03-26T20:38:16.153Z,21.60
2019-03-26T20:40:50.031Z,21.60
2019-03-26T20:43:36.801Z,21.60
2019-03-26T20:45:59.710Z,21.60
2019-03-26T20:48:33.191Z,21.60
2019-03-26T20:51:06.542Z,21.60
2019-03-26T20:53:40.633Z,21.60
2019-03-26T20:56:15.488Z,21.60
2019-03-26T20:58:49.454Z,21.60
2019-03-26T21:01:22.869Z,21.60
2019-03-26T21:03:56.320Z,21.60
2019-03-26T21:06:29.758Z,21.60
2019-03-26T21:09:03.180Z,21.60
2019-03-26T21:11:37.985Z,21.60
2019-03-26T21:14:12.032Z,21.60
2019-03-26T21:16:45.476Z,21.50
2019-03-26T21:19:19.001Z,21.50
2019-03-26T21:21:53.098Z,21.50
2019-03-26T21:24:26.967Z,21.50
2019-03-26T21:27:01.236Z,21.50
2019-03-26T21:29:35.113Z,21.50
2019-03-26T21:32:08.469Z,21.50
2019-03-26T21:34:43.418Z,21.50
2019-03-26T21:37:16.772Z,21.50
2019-03-26T21:39:50.546Z,21.50
2019-03-26T21:42:23.790Z,21.50
2019-03-26T21:44:57.786Z,21.50
2019-03-26T21:47:30.957Z,21.50
2019-03-26T21:50:05.067Z,21.50
2019-03-26T21:52:40.417Z,21.50
2019-03-26T21:55:14.473Z,21.50
2019-03-26T21:57:49.784Z,21.50
2019-03-26T22:00:23.564Z,21.50
2019-03-26T22:02:57.052Z,21.50
2019-03-26T22:05:30.696Z,21.50
2019-03-26T22:08:04.564Z,21.50
2019-03-26T22:10:37.973Z,21.50
2019-03-26T22:13:11.684Z,21.50
2019-03-26T22:15:44.897Z,21.50
2019-03-26T22:18:18.819Z,21.50
2019-03-26T22:20:52.011Z,21.40
2019-03-26T22:23:25.707Z,21.50
2019-03-26T22:25:58.895Z,21.50
2019-03-26T22:28:32.217Z,21.60
2019-03-26T22:31:05.405Z,21.60
2019-03-26T22:33:39.216Z,21.70
2019-03-26T22:36:12.408Z,21.70
2019-03-26T22:38:46.020Z,21.70
2019-03-26T22:41:19.199Z,21.60
2019-03-26T22:43:55.094Z,21.60
2019-03-26T22:46:27.979Z,21.60
2019-03-26T22:49:01.852Z,21.60
2019-03-26T22:51:35.101Z,21.60
2019-03-26T22:54:09.049Z,21.60
2019-03-26T22:56:42.258Z,21.50
2019-03-26T22:59:15.558Z,21.50
2019-03-26T23:01:48.840Z,21.50
2019-03-26T23:04:22.914Z,21.50
2019-03-26T23:06:56.320Z,21.60
2019-03-26T23:09:29.901Z,21.60
2019-03-26T23:12:03.252Z,21.50
2019-03-26T23:14:45.006Z,21.50
2019-03-26T23:17:12.677Z,21.50
2019-03-26T23:19:46.527Z,21.60
2019-03-26T23:22:21.285Z,21.50
2019-03-26T23:24:56.418Z,21.50
2019-03-26T23:27:29.794Z,21.60
2019-03-26T23:30:03.226Z,21.60
2019-03-26T23:32:36.532Z,21.60
2019-03-26T23:35:10.993Z,21.60
2019-03-26T23:37:44.477Z,21.70
2019-03-26T23:40:18.294Z,21.60
2019-03-26T23:42:51.681Z,21.60
2019-03-26T23:45:25.707Z,21.60
2019-03-26T23:47:58.972Z,21.60
2019-03-26T23:50:32.933Z,21.60
2019-03-26T23:53:06.185Z,21.60
2019-03-26T23:55:40.996Z,21.60
2019-03-26T23:58:14.343Z,21.60
